Time;durP1;ratioP1;P1;durP2;ratioP2;P2;SDS_P1;SDS_P2;PMS_P1;PMS_P2;Temp;Humidity;BMP_temperature;BMP_pressure;BME280_temperature;BME280_humidity;BME280_pressure;Samples;Min_cycle;Max_cycle;Signal;HPM_P1;HPM_P2
2022/11/17 00:00:38;;;;;;;6.37;5.78;;;;;;;3.78;90.71;100005.88;1818718;77;28233;-83
2022/11/17 00:03:05;;;;;;;6.55;5.40;;;;;;;3.78;90.66;99999.73;1816982;77;25878;-83
2022/11/17 00:05:31;;;;;;;8.13;5.72;;;;;;;3.78;90.59;99999.25;1825554;77;25806;-83
2022/11/17 00:07:57;;;;;;;8.95;5.60;;;;;;;3.78;90.50;99999.73;1807671;77;25817;-83
2022/11/17 00:10:23;;;;;;;6.95;5.87;;;;;;;3.81;90.66;100004.22;1812022;77;25954;-83
2022/11/17 00:15:35;;;;;;;7.97;5.58;;;;;;;3.82;90.37;100001.92;1797665;77;25995;-83
2022/11/17 00:23:45;;;;;;;7.62;5.20;;;;;;;3.76;89.91;100004.37;1833912;76;25483;-83
2022/11/17 00:26:20;;;;;;;6.50;5.45;;;;;;;3.76;90.01;100005.17;1773178;79;27460;-83
2022/11/17 00:28:55;;;;;;;7.15;5.00;;;;;;;3.79;90.03;100005.35;1792232;79;25780;-83
2022/11/17 00:34:18;;;;;;;5.58;4.78;;;;;;;3.81;89.91;100005.54;1809607;78;26557;-82
2022/11/17 00:36:48;;;;;;;6.53;4.80;;;;;;;3.82;89.97;100011.67;1828410;76;25719;-83
2022/11/17 00:39:16;;;;;;;7.43;6.13;;;;;;;3.83;89.91;100005.38;1816709;77;27429;-83
2022/11/17 00:41:42;;;;;;;8.03;5.87;;;;;;;3.80;89.70;100014.49;1832363;76;26427;-83
2022/11/17 00:44:10;;;;;;;6.25;5.45;;;;;;;3.78;89.77;100009.84;1820830;76;25809;-83
2022/11/17 00:46:38;;;;;;;11.53;6.80;;;;;;;3.75;89.76;100009.31;1816766;76;26507;-83
2022/11/17 00:49:06;;;;;;;7.08;5.62;;;;;;;3.76;90.03;100012.31;1834309;76;25831;-83
2022/11/17 00:51:32;;;;;;;8.40;5.92;;;;;;;3.78;90.08;100008.52;1820397;76;27430;-82
2022/11/17 00:53:59;;;;;;;7.55;5.67;;;;;;;3.78;89.87;100006.36;1838402;76;25940;-83
2022/11/17 00:56:26;;;;;;;11.88;6.22;;;;;;;3.76;90.00;100007.02;1816113;77;26516;-83
2022/11/17 00:58:53;;;;;;;7.80;5.33;;;;;;;3.75;89.81;100002.69;1810572;78;25869;-83
2022/11/17 01:01:20;;;;;;;6.65;4.92;;;;;;;3.74;89.95;100005.83;1820597;77;25881;-83
2022/11/17 01:03:47;;;;;;;7.42;5.75;;;;;;;3.76;90.17;100007.82;1830968;76;28275;-83
2022/11/17 01:06:17;;;;;;;7.25;5.45;;;;;;;3.78;89.96;100005.03;1827464;76;26383;-83
2022/11/17 01:08:45;;;;;;;6.60;4.72;;;;;;;3.76;89.75;100001.72;1826791;76;26397;-83
2022/11/17 01:11:15;;;;;;;6.70;5.12;;;;;;;3.77;89.77;100003.36;1821480;76;26941;-83
2022/11/17 01:13:45;;;;;;;5.10;4.03;;;;;;;3.75;89.61;100000.04;1822576;78;25747;-83
2022/11/17 01:16:15;;;;;;;5.50;4.78;;;;;;;3.74;89.69;99995.23;1800319;78;27452;-83
2022/11/17 01:18:43;;;;;;;4.15;3.75;;;;;;;3.74;89.45;99997.07;1782547;78;26783;-83
2022/11/17 01:21:23;;;;;;;5.70;4.60;;;;;;;3.72;89.30;99993.23;1793173;78;26002;-83
2022/11/17 01:23:53;;;;;;;4.35;3.95;;;;;;;3.72;89.26;100000.37;1682943;78;26985;-81
2022/11/17 01:26:23;;;;;;;4.97;4.03;;;;;;;3.74;89.31;100003.69;1821534;77;25748;-82
2022/11/17 01:28:51;;;;;;;6.05;4.10;;;;;;;3.73;89.08;100002.86;1813499;77;27442;-81
2022/11/17 01:31:23;;;;;;;5.67;3.77;;;;;;;3.70;88.63;100005.80;1812822;77;25779;-81
2022/11/17 01:33:50;;;;;;;5.28;4.08;;;;;;;3.68;88.46;100002.97;1823852;77;25789;-82
2022/11/17 01:36:24;;;;;;;5.75;3.87;;;;;;;3.64;88.41;99999.81;1820275;78;25937;-81
2022/11/17 01:38:51;;;;;;;5.33;3.75;;;;;;;3.62;88.25;99997.82;1814228;77;25293;-81
2022/11/17 01:41:24;;;;;;;4.28;3.87;;;;;;;3.63;88.33;100003.47;1828163;77;27547;-81
2022/11/17 01:43:55;;;;;;;5.28;3.90;;;;;;;3.62;88.06;99999.15;1819834;77;25525;-81
2022/11/17 01:46:39;;;;;;;3.50;3.20;;;;;;;3.59;87.95;99999.45;1823504;77;25744;-82
2022/11/17 01:49:21;;;;;;;4.15;3.20;;;;;;;3.57;87.78;99993.48;1809927;77;25957;-82
2022/11/17 01:51:55;;;;;;;4.22;3.12;;;;;;;3.59;87.92;99998.12;1817380;77;25830;-82
2022/11/17 01:54:25;;;;;;;4.40;3.72;;;;;;;3.58;87.76;99990.34;1823128;77;28288;-83
2022/11/17 01:56:56;;;;;;;4.17;3.15;;;;;;;3.56;87.17;99998.94;1830457;77;25846;-83
2022/11/17 01:59:33;;;;;;;4.20;3.25;;;;;;;3.53;87.16;99994.78;1801752;77;25848;-83
2022/11/17 02:02:00;;;;;;;3.50;2.90;;;;;;;3.51;86.88;99995.44;1801251;78;25797;-82
2022/11/17 02:04:33;;;;;;;4.87;3.52;;;;;;;3.48;86.83;99994.92;1822994;77;25780;-82
2022/11/17 02:07:11;;;;;;;2.87;2.58;;;;;;;3.49;86.77;99989.95;1766636;78;27471;-84
2022/11/17 02:09:39;;;;;;;3.35;2.65;;;;;;;3.48;86.50;99990.47;1816990;77;25969;-82
2022/11/17 02:12:09;;;;;;;6.40;3.33;;;;;;;3.47;86.01;99985.31;1823206;77;25314;-82
2022/11/17 02:14:37;;;;;;;4.45;3.02;;;;;;;3.42;85.76;99981.80;1789400;78;26464;-83
2022/11/17 02:17:06;;;;;;;4.70;2.40;;;;;;;3.41;85.77;99988.59;1795067;78;26384;-83
2022/11/17 02:19:37;;;;;;;3.37;2.65;;;;;;;3.40;85.65;99981.65;1808416;78;27867;-82
2022/11/17 02:22:28;;;;;;;2.87;2.52;;;;;;;3.39;85.23;99980.81;1780311;79;25759;-83
2022/11/17 02:25:30;;;;;;;3.15;2.50;;;;;;;3.36;85.29;99975.81;1817097;77;25938;-82
2022/11/17 02:28:21;;;;;;;3.15;2.50;;;;;;;3.32;84.89;99974.95;1804899;77;25993;-83
2022/11/17 02:31:23;;;;;;;2.42;2.22;;;;;;;3.29;85.00;99977.45;1798028;77;25638;-83
2022/11/17 02:34:28;;;;;;;3.27;2.30;;;;;;;3.26;84.81;99973.77;1816504;77;27687;-83
2022/11/17 02:37:06;;;;;;;3.27;2.47;;;;;;;3.24;84.93;99981.52;1800123;77;26328;-82
2022/11/17 02:39:50;;;;;;;3.10;2.40;;;;;;;3.21;85.10;99979.20;1815626;77;26672;-83
2022/11/17 02:44:02;;;;;;;3.52;3.00;;;;;;;3.17;84.88;99985.28;1817184;77;25774;-82
2022/11/17 02:44:57;;;;;;;2.87;2.35;;;;;;;3.14;84.61;99985.61;1817606;77;26538;-82
2022/11/17 02:47:31;;;;;;;2.52;2.25;;;;;;;3.11;84.77;99980.13;1782291;79;27446;-82
2022/11/17 02:50:05;;;;;;;3.20;2.40;;;;;;;3.10;84.74;99983.73;1816743;78;26089;-82
2022/11/17 02:52:31;;;;;;;3.05;2.60;;;;;;;3.11;84.66;99984.58;1807530;77;25803;-82
2022/11/17 02:55:05;;;;;;;3.65;2.58;;;;;;;3.09;84.55;99986.06;1762102;79;25886;-81
2022/11/17 02:57:37;;;;;;;5.47;2.62;;;;;;;3.12;84.57;99993.67;1806080;78;25755;-83
2022/11/17 03:00:14;;;;;;;2.42;2.22;;;;;;;3.11;83.92;99989.39;1817832;77;27443;-82
2022/11/17 03:03:15;;;;;;;3.25;2.85;;;;;;;3.09;83.89;99989.20;1825036;77;25842;-84
2022/11/17 03:05:50;;;;;;;5.53;3.37;;;;;;;3.08;83.55;99984.39;1796627;78;25790;-82
2022/11/17 03:08:46;;;;;;;4.00;3.60;;;;;;;3.05;83.29;99989.17;1824205;77;25782;-82
2022/11/17 03:11:12;;;;;;;2.90;2.42;;;;;;;3.03;83.29;99998.59;1804796;78;25321;-82
2022/11/17 03:13:56;;;;;;;3.05;2.65;;;;;;;3.02;83.15;99993.43;1823317;77;27469;-83
2022/11/17 03:16:34;;;;;;;2.80;2.42;;;;;;;3.01;83.24;99998.40;1776802;78;26504;-82
2022/11/17 03:19:20;;;;;;;3.05;2.72;;;;;;;2.99;83.13;99994.56;1819564;77;26425;-83
2022/11/17 03:21:56;;;;;;;3.22;2.55;;;;;;;2.99;82.93;99997.72;1825301;77;25659;-82
2022/11/17 03:24:28;;;;;;;3.00;2.70;;;;;;;2.98;82.76;99988.11;1821889;77;25332;-82
2022/11/17 03:27:14;;;;;;;3.22;2.92;;;;;;;2.93;82.79;99999.14;1830447;77;27417;-82
2022/11/17 03:29:45;;;;;;;3.72;3.15;;;;;;;2.92;82.83;99996.66;1813177;77;26334;-82
2022/11/17 03:32:15;;;;;;;4.50;3.00;;;;;;;2.91;82.71;99990.53;1818338;77;25941;-82
2022/11/17 03:35:02;;;;;;;2.47;2.13;;;;;;;2.91;82.72;99998.47;1825951;77;25801;-83
2022/11/17 03:37:32;;;;;;;3.40;2.90;;;;;;;2.92;82.44;99999.31;1792437;78;25757;-82
2022/11/17 03:40:04;;;;;;;2.67;2.47;;;;;;;2.89;82.22;100003.56;1787215;78;27475;-82
2022/11/17 03:42:34;;;;;;;2.85;2.12;;;;;;;2.87;82.28;100001.08;1828925;77;25802;-83
2022/11/17 03:45:17;;;;;;;3.12;2.52;;;;;;;2.84;81.63;100001.41;1826554;77;25847;-83
2022/11/17 03:47:44;;;;;;;3.33;2.42;;;;;;;2.81;81.91;99999.53;1805823;78;26548;-82
2022/11/17 03:50:36;;;;;;;2.40;2.08;;;;;;;2.80;81.96;100004.50;1817747;78;25991;-82
2022/11/17 03:53:05;;;;;;;2.20;2.00;;;;;;;2.77;81.42;99992.41;1790622;78;27445;-82
2022/11/17 03:56:01;;;;;;;5.12;2.72;;;;;;;2.75;81.31;99994.37;1773470;78;25788;-82
2022/11/17 03:58:31;;;;;;;3.90;2.77;;;;;;;2.77;81.46;99992.41;1755006;79;25949;-83
2022/11/17 04:01:00;;;;;;;3.75;2.55;;;;;;;2.81;81.62;99991.60;1794881;78;26043;-82
2022/11/17 04:03:32;;;;;;;2.35;2.15;;;;;;;2.80;81.42;99995.25;1782842;79;25309;-82
2022/11/17 04:05:59;;;;;;;3.12;2.58;;;;;;;2.80;81.12;99994.73;1808673;78;28342;-83
2022/11/17 04:08:29;;;;;;;2.80;2.45;;;;;;;2.78;81.41;99996.70;1795315;78;25865;-82
2022/11/17 04:16:26;;;;;;;2.83;2.52;;;;;;;2.84;80.98;99993.95;1824969;77;25525;-83
2022/11/17 04:18:52;;;;;;;3.67;2.60;;;;;;;2.79;81.03;99997.53;1788748;78;27437;-82
2022/11/17 04:21:18;;;;;;;3.60;2.67;;;;;;;2.76;80.83;100003.95;1787162;79;25970;-82
2022/11/17 04:23:44;;;;;;;3.22;2.65;;;;;;;2.75;81.12;99997.50;1821807;77;25876;-82
2022/11/17 04:28:56;;;;;;;3.27;2.85;;;;;;;2.76;81.29;99999.18;1824624;77;26339;-83
2022/11/17 04:31:26;;;;;;;3.27;2.62;;;;;;;2.75;81.24;100004.95;1827000;77;27527;-82
2022/11/17 04:33:57;;;;;;;3.30;2.60;;;;;;;2.77;81.21;100004.80;1803571;78;26599;-82
2022/11/17 04:36:26;;;;;;;;;;;;;;;2.76;81.27;100002.63;1816881;78;25329;-82
2022/11/17 04:38:55;;;;;;;4.85;2.62;;;;;;;2.76;81.41;100007.11;1817974;77;25755;-82
2022/11/17 04:44:11;;;;;;;3.98;3.02;;;;;;;2.72;81.36;100014.50;1832625;77;28258;-82
2022/11/17 04:46:39;;;;;;;4.15;3.00;;;;;;;2.67;81.29;100005.37;1816988;77;25860;-83
2022/11/17 04:49:07;;;;;;;4.08;3.00;;;;;;;2.65;81.57;100011.30;1827740;77;25792;-83
2022/11/17 04:51:34;;;;;;;3.92;3.40;;;;;;;2.62;81.70;100011.11;1825801;77;26501;-83
2022/11/17 04:54:03;;;;;;;4.05;3.27;;;;;;;2.59;81.93;100012.72;1823629;77;25543;-83
2022/11/17 04:56:30;;;;;;;4.00;3.15;;;;;;;2.56;81.61;100014.36;1815790;77;27441;-82
2022/11/17 04:58:56;;;;;;;3.27;2.87;;;;;;;2.53;81.56;100008.52;1826391;77;25886;-83
2022/11/17 05:01:25;;;;;;;3.85;3.00;;;;;;;2.50;81.90;100006.19;1830093;76;25750;-83
2022/11/17 05:03:56;;;;;;;3.25;2.95;;;;;;;2.48;81.94;100008.16;1831160;77;25997;-82
2022/11/17 05:06:30;;;;;;;3.37;2.95;;;;;;;2.45;81.99;100004.47;1819493;77;25615;-82
2022/11/17 05:08:59;;;;;;;3.77;3.10;;;;;;;2.43;82.23;100004.63;1788053;79;28280;-83
2022/11/17 05:14:18;;;;;;;3.92;3.37;;;;;;;2.45;82.37;100011.92;1815998;77;25881;-81
2022/11/17 05:19:33;;;;;;;3.45;3.10;;;;;;;2.42;82.38;100011.40;1811680;77;25849;-82
2022/11/17 05:22:00;;;;;;;3.47;3.07;;;;;;;2.41;82.52;100007.08;1820384;77;27434;-82
2022/11/17 05:24:26;;;;;;;4.85;3.40;;;;;;;2.40;82.35;100005.41;1820912;77;25774;-83
2022/11/17 05:26:53;;;;;;;3.58;3.27;;;;;;;2.35;82.40;100006.68;1825664;77;25997;-83
2022/11/17 05:29:22;;;;;;;4.15;3.02;;;;;;;2.34;82.23;100002.39;1828467;77;26995;-83
2022/11/17 05:31:48;;;;;;;4.08;3.00;;;;;;;2.32;82.52;100003.03;1808701;78;25341;-83
2022/11/17 05:34:16;;;;;;;3.77;3.27;;;;;;;2.33;82.47;99998.07;1830325;77;27431;-83
2022/11/17 05:36:44;;;;;;;4.12;2.83;;;;;;;2.32;82.54;99996.91;1819815;77;25864;-83
2022/11/17 05:39:12;;;;;;;4.95;2.85;;;;;;;2.32;82.57;99997.75;1823239;76;25769;-82
2022/11/17 05:41:39;;;;;;;3.47;2.85;;;;;;;2.32;82.51;100003.52;1819994;77;26966;-82
2022/11/17 05:44:05;;;;;;;3.87;2.90;;;;;;;2.30;82.46;99998.39;1824876;77;25727;-82
2022/11/17 05:46:31;;;;;;;3.12;2.83;;;;;;;2.30;82.55;100000.19;1822841;78;27432;-82
2022/11/17 05:48:58;;;;;;;3.80;2.80;;;;;;;2.26;82.17;99998.34;1839243;76;25919;-82
2022/11/17 05:51:24;;;;;;;3.60;2.77;;;;;;;2.23;82.23;100003.92;1797880;78;25964;-82
2022/11/17 05:53:50;;;;;;;4.03;3.33;;;;;;;2.22;82.46;100006.20;1793660;78;25833;-82
2022/11/17 05:56:59;;;;;;;3.98;2.80;;;;;;;2.23;82.58;100011.84;1795252;78;25911;-82
2022/11/17 05:59:46;;;;;;;4.80;3.05;;;;;;;2.21;82.42;100008.52;1822386;76;27636;-82
2022/11/17 06:02:24;;;;;;;3.40;3.02;;;;;;;2.20;82.46;100009.48;1816288;76;25800;-83
2022/11/17 06:04:52;;;;;;;3.52;3.00;;;;;;;2.21;82.65;100009.00;1812664;76;26487;-84
2022/11/17 06:07:19;;;;;;;4.42;3.42;;;;;;;2.19;82.60;100005.20;1818927;76;25761;-82
2022/11/17 06:09:46;;;;;;;3.42;3.12;;;;;;;2.20;82.43;100004.71;1814292;77;25793;-83
2022/11/17 06:12:14;;;;;;;4.40;2.85;;;;;;;2.18;82.40;100022.02;1822074;77;27436;-83
2022/11/17 06:14:40;;;;;;;4.33;3.17;;;;;;;2.16;82.54;100016.05;1816506;76;26147;-82
2022/11/17 06:17:23;;;;;;;3.45;2.47;;;;;;;2.19;82.58;100016.25;1822037;76;25806;-83
2022/11/17 06:20:01;;;;;;;3.58;3.12;;;;;;;2.20;82.42;100019.25;1818425;76;25771;-82
2022/11/17 06:22:29;;;;;;;3.60;2.85;;;;;;;2.20;82.54;100025.84;1813809;76;25951;-82
2022/11/17 06:24:56;;;;;;;4.50;3.25;;;;;;;2.22;82.60;100023.89;1838899;77;27464;-82
2022/11/17 06:27:24;;;;;;;3.72;2.60;;;;;;;2.25;82.63;100023.58;1824512;77;25769;-83
2022/11/17 06:29:51;;;;;;;3.52;2.80;;;;;;;2.26;82.62;100015.52;1816683;77;25732;-83
2022/11/17 06:32:18;;;;;;;3.05;2.47;;;;;;;2.26;82.15;100027.90;1818021;77;26514;-82
2022/11/17 06:34:47;;;;;;;3.62;2.83;;;;;;;2.21;81.90;100020.89;1811578;78;26509;-82
2022/11/17 06:37:14;;;;;;;3.70;2.33;;;;;;;2.17;82.00;100024.81;1814265;76;27513;-82
2022/11/17 06:39:40;;;;;;;3.35;2.77;;;;;;;2.16;82.30;100026.61;1809915;77;25889;-82
2022/11/17 06:42:06;;;;;;;3.10;2.75;;;;;;;2.19;82.36;100032.94;1820096;77;26071;-82
2022/11/17 06:44:33;;;;;;;3.67;2.95;;;;;;;2.18;82.16;100037.86;1828688;77;26896;-82
2022/11/17 06:46:59;;;;;;;4.33;2.77;;;;;;;2.17;82.25;100037.53;1794707;77;25863;-82
2022/11/17 06:49:25;;;;;;;5.12;3.12;;;;;;;2.17;82.08;100032.73;1812391;77;27513;-82
2022/11/17 06:51:51;;;;;;;3.98;3.08;;;;;;;2.17;82.27;100030.09;1819350;78;25827;-84
2022/11/17 06:54:18;;;;;;;5.53;3.02;;;;;;;2.18;82.16;100021.20;1782532;78;25875;-82
2022/11/17 06:56:44;;;;;;;5.50;2.80;;;;;;;2.19;82.52;100017.09;1836808;76;25812;-82
2022/11/17 06:59:10;;;;;;;3.08;2.67;;;;;;;2.21;82.17;100013.80;1834898;77;25898;-82
2022/11/17 07:01:37;;;;;;;3.33;2.67;;;;;;;2.17;82.15;100026.97;1831993;76;28253;-82
2022/11/17 07:04:03;;;;;;;3.67;3.02;;;;;;;2.15;82.02;100027.61;1832854;77;25937;-83
2022/11/17 07:06:31;;;;;;;3.95;2.70;;;;;;;2.16;82.18;100028.45;1830164;76;27496;-82
2022/11/17 07:08:57;;;;;;;4.42;2.62;;;;;;;2.14;81.81;100031.22;1791430;78;26894;-83
2022/11/17 07:11:23;;;;;;;4.28;2.92;;;;;;;2.14;81.97;100039.14;1833469;76;25368;-83
2022/11/17 07:13:49;;;;;;;4.42;3.55;;;;;;;2.15;82.03;100036.86;1799081;77;27456;-83
2022/11/17 07:16:19;;;;;;;2.92;2.35;;;;;;;2.18;82.05;100042.34;1815859;77;26696;-82
2022/11/17 07:18:45;;;;;;;3.80;2.70;;;;;;;2.19;81.84;100042.19;1810329;78;26354;-83
2022/11/17 07:21:13;;;;;;;3.33;2.90;;;;;;;2.20;81.93;100041.70;1812600;78;25773;-83
2022/11/17 07:23:41;;;;;;;4.17;3.10;;;;;;;2.19;81.54;100037.38;1827569;76;25748;-83
2022/11/17 07:26:08;;;;;;;3.33;2.30;;;;;;;2.17;81.59;100048.11;1830525;76;27456;-82
2022/11/17 07:28:34;;;;;;;4.58;3.08;;;;;;;2.18;81.73;100039.19;1838781;76;26302;-82
2022/11/17 07:31:03;;;;;;;4.58;3.20;;;;;;;2.19;81.65;100041.34;1835335;77;25790;-82
2022/11/17 07:33:30;;;;;;;4.47;2.85;;;;;;;2.19;81.46;100042.66;1827379;76;26562;-82
2022/11/17 07:36:04;;;;;;;6.10;3.55;;;;;;;2.20;81.52;100041.19;1833936;76;25565;-83
2022/11/17 07:38:32;;;;;;;5.12;3.50;;;;;;;2.19;81.42;100042.19;1814346;76;27470;-83
2022/11/17 07:40:59;;;;;;;4.97;2.92;;;;;;;2.21;81.32;100038.91;1774571;78;26039;-83
2022/11/17 07:43:26;;;;;;;4.30;3.02;;;;;;;2.23;81.32;100044.03;1789915;79;25774;-83
2022/11/17 07:45:53;;;;;;;3.30;2.52;;;;;;;2.22;81.13;100045.83;1815921;76;26555;-83
2022/11/17 07:48:19;;;;;;;4.58;3.90;;;;;;;2.21;80.96;100045.99;1806622;77;25855;-82
2022/11/17 07:50:45;;;;;;;3.50;2.60;;;;;;;2.22;81.18;100043.70;1819707;76;27525;-81
2022/11/17 07:53:12;;;;;;;4.72;3.17;;;;;;;2.23;80.93;100050.64;1831199;77;25346;-82
2022/11/17 07:55:39;;;;;;;3.98;2.60;;;;;;;2.24;80.92;100039.11;1817030;77;25596;-86
2022/11/17 07:58:05;;;;;;;3.67;2.58;;;;;;;2.26;81.08;100039.78;1821129;76;26265;-82
2022/11/17 08:00:32;;;;;;;2.75;2.45;;;;;;;2.24;80.54;100037.30;1821999;77;25914;-88
2022/11/17 08:03:03;;;;;;;2.77;2.37;;;;;;;2.24;80.62;100045.23;1833674;78;27449;-85
2022/11/17 08:05:36;;;;;;;;;;;;;;;2.27;80.73;100046.72;1824741;76;25731;-85
2022/11/17 08:08:02;;;;;;;4.30;3.33;;;;;;;2.25;80.41;100042.91;1807692;76;25833;-86
2022/11/17 08:10:33;;;;;;;3.80;3.30;;;;;;;2.25;80.74;100043.39;1814918;78;26301;-84
2022/11/17 08:12:59;;;;;;;9.55;6.60;;;;;;;2.27;80.73;100048.88;1817863;78;26409;-85
2022/11/17 08:15:28;;;;;;;10.55;8.35;;;;;;;2.30;80.52;100055.69;1828882;77;27473;-86
2022/11/17 08:17:57;;;;;;;4.37;3.83;;;;;;;2.32;80.74;100047.13;1830815;77;25854;-85
2022/11/17 08:20:24;;;;;;;3.65;2.72;;;;;;;2.34;80.48;100045.16;1823596;77;26341;-84
2022/11/17 08:22:52;;;;;;;5.05;3.62;;;;;;;2.36;80.53;100049.80;1816343;77;26386;-85
2022/11/17 08:25:21;;;;;;;4.33;2.85;;;;;;;2.37;80.58;100049.33;1804419;77;25895;-85
2022/11/17 08:27:50;;;;;;;3.00;2.55;;;;;;;2.40;80.82;100049.84;1823266;77;27456;-85
2022/11/17 08:30:17;;;;;;;2.67;2.35;;;;;;;2.41;80.44;100041.44;1822100;77;25602;-84
2022/11/17 08:32:48;;;;;;;4.35;3.20;;;;;;;2.39;79.93;100039.44;1817214;77;26139;-85
2022/11/17 08:35:16;;;;;;;5.33;3.33;;;;;;;2.33;79.46;100050.92;1819373;77;25962;-84
2022/11/17 08:37:42;;;;;;;4.12;3.52;;;;;;;2.27;79.45;100049.36;1819375;77;25879;-85
2022/11/17 08:40:10;;;;;;;11.68;6.47;;;;;;;2.23;79.50;100046.19;1818999;77;26727;-85
2022/11/17 08:42:37;;;;;;;8.98;7.28;;;;;;;2.26;79.62;100045.91;1809025;77;25863;-86
2022/11/17 08:45:07;;;;;;;38.83;18.48;;;;;;;2.28;79.79;100044.44;1805271;77;26098;-87
2022/11/17 08:47:34;;;;;;;9.58;6.12;;;;;;;2.30;79.71;100051.72;1823462;77;25844;-87
2022/11/17 08:50:00;;;;;;;36.95;22.55;;;;;;;2.32;79.77;100049.28;1822085;77;25811;-86
2022/11/17 08:52:27;;;;;;;7.28;5.67;;;;;;;2.34;79.75;100051.28;1814600;77;28135;-86
2022/11/17 08:54:54;;;;;;;8.65;7.40;;;;;;;2.34;79.61;100054.41;1822794;77;25716;-87
2022/11/17 08:57:23;;;;;;;8.68;7.15;;;;;;;2.33;79.67;100048.80;1814681;77;25975;-88
2022/11/17 08:59:49;;;;;;;7.53;4.53;;;;;;;2.33;79.92;100046.16;1795118;78;25759;-87
2022/11/17 09:02:16;;;;;;;5.72;3.85;;;;;;;2.35;79.96;100044.20;1791711;77;25269;-87
2022/11/17 09:04:44;;;;;;;6.00;4.42;;;;;;;2.35;79.96;100050.29;1791276;79;28307;-87
2022/11/17 09:07:11;;;;;;;6.78;4.50;;;;;;;2.34;80.00;100051.28;1802662;78;25783;-87
2022/11/17 09:09:37;;;;;;;11.97;8.23;;;;;;;2.35;80.17;100046.32;1814108;77;26482;-87
2022/11/17 09:12:04;;;;;;;19.80;12.98;;;;;;;2.38;80.28;100046.52;1810645;78;26484;-87
2022/11/17 09:14:30;;;;;;;11.80;7.40;;;;;;;2.41;80.37;100044.92;1778229;79;25852;-85
2022/11/17 09:16:56;;;;;;;16.93;11.45;;;;;;;2.43;80.21;100040.80;1827398;77;27439;-86
2022/11/17 09:19:23;;;;;;;20.32;12.40;;;;;;;2.44;81.58;100038.51;1819403;77;25999;-87
2022/11/17 09:21:49;;;;;;;16.15;9.95;;;;;;;2.61;83.48;100045.13;1817640;78;25746;-88
2022/11/17 09:24:15;;;;;;;14.53;9.38;;;;;;;2.63;81.27;100045.80;1818016;77;25895;-85
2022/11/17 09:26:42;;;;;;;16.00;11.63;;;;;;;2.64;80.71;100047.48;1828662;77;26452;-86
2022/11/17 09:29:08;;;;;;;20.15;12.45;;;;;;;2.66;80.65;100042.88;1825525;77;27453;-85
2022/11/17 09:31:35;;;;;;;23.20;15.03;;;;;;;2.64;79.97;100040.03;1792387;79;25752;-85
2022/11/17 09:34:01;;;;;;;17.70;11.20;;;;;;;2.61;79.72;100049.59;1822536;77;25894;-86
2022/11/17 09:36:28;;;;;;;10.72;7.08;;;;;;;2.59;80.10;100047.59;1810668;77;26948;-85
2022/11/17 09:38:54;;;;;;;13.58;8.85;;;;;;;2.61;80.08;100037.70;1782342;78;25785;-85
2022/11/17 09:41:40;;;;;;;12.30;8.88;;;;;;;2.60;79.54;100042.16;1805758;78;27590;-85
2022/11/17 09:44:16;;;;;;;25.17;15.88;;;;;;;2.58;79.57;100039.31;1809123;77;26007;-87
2022/11/17 09:47:11;;;;;;;11.53;8.28;;;;;;;2.55;79.36;100040.91;1830020;77;26398;-86
2022/11/17 09:50:06;;;;;;;15.55;11.20;;;;;;;2.49;78.85;100044.16;1823073;77;25854;-86
2022/11/17 09:52:58;;;;;;;7.75;6.85;;;;;;;2.41;78.48;100034.34;1815787;78;25701;-84
2022/11/17 09:55:41;;;;;;;8.60;6.92;;;;;;;2.36;78.51;100032.63;1785201;77;27529;-84
2022/11/17 09:58:18;;;;;;;19.87;15.38;;;;;;;2.38;78.86;100035.95;1822882;77;25269;-86
2022/11/17 10:00:51;;;;;;;8.75;6.78;;;;;;;2.40;78.78;100030.51;1832761;77;25909;-85
2022/11/17 10:03:23;;;;;;;9.90;7.20;;;;;;;2.35;78.48;100027.83;1816447;77;26333;-85
2022/11/17 10:05:51;;;;;;;15.40;9.73;;;;;;;2.36;78.65;100026.02;1818154;77;25748;-86
2022/11/17 10:08:23;;;;;;;20.60;11.60;;;;;;;2.36;78.61;100020.73;1812430;77;27440;-85
2022/11/17 10:10:51;;;;;;;17.73;10.18;;;;;;;2.34;78.62;100022.22;1800363;78;25634;-85
2022/11/17 10:13:32;;;;;;;14.40;9.35;;;;;;;2.35;78.66;100012.48;1829282;77;25909;-85
2022/11/17 10:16:06;;;;;;;9.25;6.50;;;;;;;2.38;78.95;100013.97;1796265;77;27149;-85
2022/11/17 10:18:36;;;;;;;9.95;6.50;;;;;;;2.40;78.59;100010.20;1823358;77;25810;-88
2022/11/17 10:21:05;;;;;;;8.20;7.08;;;;;;;2.42;78.74;100019.33;1824841;77;28388;-87
2022/11/17 10:23:38;;;;;;;7.95;5.95;;;;;;;2.41;78.43;100013.20;1812549;78;25961;-87
2022/11/17 10:26:11;;;;;;;8.15;6.97;;;;;;;2.35;78.14;100013.29;1826689;77;25945;-87
2022/11/17 10:28:38;;;;;;;8.93;7.30;;;;;;;2.33;78.49;100015.77;1812583;77;25819;-86
2022/11/17 10:31:17;;;;;;;8.80;5.90;;;;;;;2.34;78.63;100009.48;1837595;77;25868;-85
2022/11/17 10:33:48;;;;;;;7.87;6.33;;;;;;;2.35;78.60;100009.33;1825743;77;28869;-85
2022/11/17 10:36:26;;;;;;;8.05;6.08;;;;;;;2.34;78.53;100015.61;1830200;77;25230;-86
2022/11/17 10:38:55;;;;;;;5.67;5.10;;;;;;;2.34;78.58;100014.28;1829561;77;25788;-87
2022/11/17 10:41:42;;;;;;;7.67;5.80;;;;;;;2.33;78.51;100014.45;1828611;77;25874;-87
2022/11/17 10:44:20;;;;;;;8.45;6.47;;;;;;;2.27;77.89;100016.33;1787893;78;26452;-86
2022/11/17 10:47:06;;;;;;;20.17;10.95;;;;;;;2.22;78.29;100012.81;1791562;78;28234;-86
2022/11/17 10:49:38;;;;;;;16.40;11.03;;;;;;;2.25;78.47;100013.01;1808533;78;25849;-86
2022/11/17 10:52:17;;;;;;;14.28;10.05;;;;;;;2.25;78.38;100015.16;1808789;77;26011;-86
2022/11/17 10:54:44;;;;;;;11.70;9.05;;;;;;;2.27;78.40;100011.05;1810283;78;25961;-86
2022/11/17 10:57:20;;;;;;;16.42;11.50;;;;;;;2.26;78.08;100005.44;1792351;77;25905;-87
2022/11/17 10:59:56;;;;;;;13.55;9.20;;;;;;;2.26;78.43;100006.28;1810558;77;27439;-86
2022/11/17 11:02:37;;;;;;;13.25;8.78;;;;;;;2.29;78.57;100011.24;1826884;77;25831;-86
2022/11/17 11:05:13;;;;;;;9.83;7.80;;;;;;;2.30;78.57;100009.44;1814885;78;25825;-87
2022/11/17 11:07:40;;;;;;;11.73;7.65;;;;;;;2.33;78.66;100005.20;1812305;77;25988;-86
2022/11/17 11:10:30;;;;;;;11.48;8.18;;;;;;;2.32;78.32;100004.36;1805543;78;25811;-86
2022/11/17 11:13:23;;;;;;;9.33;7.03;;;;;;;2.33;78.52;100001.23;1782666;79;26392;-86
2022/11/17 11:15:52;;;;;;;17.10;10.10;;;;;;;2.32;78.26;100003.52;1813424;77;26109;-86
2022/11/17 11:18:20;;;;;;;12.55;8.75;;;;;;;2.30;78.37;100001.52;1816948;77;26026;-86
2022/11/17 11:21:11;;;;;;;10.63;7.85;;;;;;;2.29;78.43;100002.48;1806442;77;25828;-86
2022/11/17 11:24:01;;;;;;;10.50;7.85;;;;;;;2.29;78.54;99998.52;1826252;77;26017;-86
2022/11/17 11:26:48;;;;;;;8.90;6.53;;;;;;;2.33;78.78;99999.91;1814149;77;27470;-86
2022/11/17 11:29:41;;;;;;;10.10;7.62;;;;;;;2.34;78.67;100003.72;1823210;77;25805;-86
2022/11/17 11:32:39;;;;;;;14.68;7.80;;;;;;;2.29;78.44;99999.36;1787415;78;25801;-87
2022/11/17 11:35:38;;;;;;;13.55;9.20;;;;;;;2.28;78.39;100002.16;1786931;78;26519;-87
2022/11/17 11:38:38;;;;;;;20.05;13.50;;;;;;;2.23;78.31;99999.11;1823081;76;25698;-87
2022/11/17 11:41:29;;;;;;;22.58;13.98;;;;;;;2.24;78.56;100000.31;1818795;76;27297;-87
2022/11/17 11:44:24;;;;;;;11.95;9.85;;;;;;;2.27;78.54;100001.80;1821449;76;26374;-87
2022/11/17 11:47:40;;;;;;;10.10;8.30;;;;;;;2.25;78.14;99997.99;1816527;76;25292;-85
2022/11/17 11:50:29;;;;;;;9.75;7.65;;;;;;;2.24;78.77;100000.31;1832868;77;25843;-85
2022/11/17 11:53:16;;;;;;;11.45;8.65;;;;;;;2.22;77.78;99994.31;1813432;76;25849;-86
2022/11/17 11:55:45;;;;;;;13.25;9.93;;;;;;;2.15;77.85;99996.39;1822029;78;27519;-85
2022/11/17 11:58:22;;;;;;;14.10;10.05;;;;;;;2.16;78.23;100005.48;1804978;79;25981;-87
2022/11/17 12:00:53;;;;;;;12.05;8.80;;;;;;;2.18;78.23;100001.39;1768927;79;25820;-88
2022/11/17 12:03:47;;;;;;;14.68;10.15;;;;;;;2.19;78.11;99996.43;1807780;78;26952;-87
2022/11/17 12:06:40;;;;;;;10.80;8.35;;;;;;;2.22;78.28;99988.22;1822838;77;25893;-86
2022/11/17 12:09:36;;;;;;;12.85;8.53;;;;;;;2.21;77.86;99993.98;1815902;77;27461;-86
2022/11/17 12:12:17;;;;;;;10.90;7.62;;;;;;;2.18;77.56;99994.27;1825051;78;25751;-86
2022/11/17 12:15:06;;;;;;;;;;;;;;;2.15;77.62;99987.14;1808523;77;25863;-86
2022/11/17 12:17:33;;;;;;;17.98;8.60;;;;;;;2.16;77.94;99984.34;1780833;79;25780;-87
2022/11/17 12:20:14;;;;;;;12.30;8.83;;;;;;;2.16;78.06;99987.50;1792715;78;26012;-87
2022/11/17 12:23:05;;;;;;;78.85;29.37;;;;;;;2.18;77.97;99985.54;1820102;77;28275;-87
2022/11/17 12:25:35;;;;;;;113.77;45.40;;;;;;;2.21;77.92;99992.66;1833336;77;26451;-87
2022/11/17 12:28:34;;;;;;;269.20;111.08;;;;;;;2.19;77.16;99989.83;1836867;77;25746;-86